createdAt,value
2023-04-23T00:00:30.694Z,33.43
2023-04-23T00:02:59.311Z,33.29
2023-04-23T00:05:28.177Z,33.24
2023-04-23T00:07:56.668Z,32.97
2023-04-23T00:10:25.291Z,32.94
2023-04-23T00:12:54.030Z,33.03
2023-04-23T00:15:22.555Z,32.76
2023-04-23T00:17:51.153Z,32.79
2023-04-23T00:20:19.321Z,32.62
2023-04-23T00:22:47.751Z,32.73
2023-04-23T00:25:15.877Z,32.76
2023-04-23T00:27:44.334Z,32.62
2023-04-23T00:30:12.970Z,32.45
2023-04-23T00:32:41.915Z,32.73
2023-04-23T00:35:10.294Z,33.30
2023-04-23T00:37:38.728Z,32.91
2023-04-23T00:40:08.264Z,33.04
2023-04-23T00:42:38.765Z,33.32
2023-04-23T00:45:08.900Z,33.05
2023-04-23T00:47:37.320Z,32.97
2023-04-23T00:50:06.686Z,32.65
2023-04-23T00:52:36.271Z,32.91
2023-04-23T00:55:05.045Z,32.78
2023-04-23T00:57:33.713Z,32.61
2023-04-23T01:00:02.009Z,33.08
2023-04-23T01:02:31.108Z,32.74
2023-04-23T01:05:00.559Z,33.09
2023-04-23T01:07:33.416Z,32.98
2023-04-23T01:10:02.408Z,32.73
2023-04-23T01:12:31.834Z,33.44
2023-04-23T01:15:00.275Z,33.10
2023-04-23T01:17:28.983Z,33.34
2023-04-23T01:19:57.316Z,33.50
2023-04-23T01:22:25.672Z,33.51
2023-04-23T01:24:54.046Z,33.29
2023-04-23T01:27:25.114Z,33.17
2023-04-23T01:29:53.520Z,32.95
2023-04-23T01:32:21.823Z,33.10
2023-04-23T01:34:50.208Z,32.97
2023-04-23T01:37:18.408Z,32.96
2023-04-23T01:39:46.712Z,33.26
2023-04-23T01:42:16.127Z,33.61
2023-04-23T01:44:44.572Z,33.26
2023-04-23T01:47:12.755Z,33.55
2023-04-23T01:49:41.387Z,33.49
2023-04-23T01:52:10.114Z,33.22
2023-04-23T01:54:38.734Z,33.38
2023-04-23T01:57:07.887Z,33.17
2023-04-23T01:59:37.906Z,33.27
2023-04-23T02:02:10.867Z,33.67
2023-04-23T02:04:40.090Z,33.59
2023-04-23T02:07:09.206Z,32.88
2023-04-23T02:09:37.964Z,32.63
2023-04-23T02:12:08.666Z,33.03
2023-04-23T02:14:37.027Z,33.41
2023-04-23T02:17:05.326Z,33.73
2023-04-23T02:19:35.255Z,34.06
2023-04-23T02:22:03.591Z,33.31
2023-04-23T02:24:32.512Z,33.16
2023-04-23T02:27:00.723Z,33.10
2023-04-23T02:29:29.441Z,32.78
2023-04-23T02:31:58.222Z,33.50
2023-04-23T02:34:26.612Z,33.52
2023-04-23T02:36:54.945Z,33.88
2023-04-23T02:39:23.133Z,33.91
2023-04-23T02:41:51.752Z,34.44
2023-04-23T02:44:19.963Z,34.05
2023-04-23T02:46:48.229Z,34.11
2023-04-23T02:49:16.773Z,34.31
2023-04-23T02:51:45.070Z,33.94
2023-04-23T02:54:13.836Z,34.25
2023-04-23T02:56:42.206Z,34.45
2023-04-23T02:59:11.189Z,34.54
2023-04-23T03:01:40.081Z,34.62
2023-04-23T03:04:09.009Z,34.69
2023-04-23T03:06:37.887Z,34.68
2023-04-23T03:09:06.177Z,34.51
2023-04-23T03:11:34.512Z,33.95
2023-04-23T03:14:03.246Z,34.25
2023-04-23T03:16:32.234Z,34.65
2023-04-23T03:19:01.574Z,34.52
2023-04-23T03:21:30.103Z,34.53
2023-04-23T03:23:58.443Z,34.67
2023-04-23T03:26:26.887Z,34.91
2023-04-23T03:28:55.191Z,35.63
2023-04-23T03:31:24.607Z,35.13
2023-04-23T03:33:53.384Z,34.60
2023-04-23T03:36:26.118Z,35.20
2023-04-23T03:38:54.701Z,35.26
2023-04-23T03:41:24.043Z,35.00
2023-04-23T03:43:52.657Z,35.17
2023-04-23T03:46:51.333Z,35.24
2023-04-23T03:49:19.693Z,35.21
2023-04-23T03:51:47.943Z,35.07
2023-04-23T03:54:16.838Z,35.04
2023-04-23T03:56:59.503Z,34.93
2023-04-23T03:59:30.012Z,34.56
2023-04-23T04:02:00.496Z,34.40
2023-04-23T04:04:30.032Z,34.57
2023-04-23T04:07:00.606Z,35.18
2023-04-23T04:09:29.274Z,35.63
2023-04-23T04:12:04.399Z,35.70
2023-04-23T04:14:33.026Z,35.31
2023-04-23T04:17:01.175Z,35.72
2023-04-23T04:19:29.863Z,35.73
2023-04-23T04:21:58.111Z,35.49
2023-04-23T04:24:26.516Z,35.49
2023-04-23T04:26:55.104Z,35.44
2023-04-23T04:29:24.209Z,35.64
2023-04-23T04:31:56.671Z,35.75
2023-04-23T04:34:24.908Z,35.71
2023-04-23T04:36:54.100Z,34.87
2023-04-23T04:39:22.540Z,34.91
2023-04-23T04:41:50.741Z,34.71
2023-04-23T04:44:19.453Z,34.57
2023-04-23T04:46:48.302Z,34.76
2023-04-23T04:49:19.702Z,34.62
2023-04-23T04:51:48.421Z,34.51
2023-04-23T04:54:17.285Z,34.66
2023-04-23T04:56:45.638Z,34.59
2023-04-23T04:59:14.089Z,34.67
2023-04-23T05:01:42.655Z,34.72
2023-04-23T05:04:11.361Z,34.60
2023-04-23T05:06:39.923Z,34.89
2023-04-23T05:09:08.639Z,34.84
2023-04-23T05:11:37.096Z,34.69
2023-04-23T05:14:05.751Z,34.60
2023-04-23T05:16:34.731Z,34.38
2023-04-23T05:19:03.006Z,34.41
2023-04-23T05:21:31.889Z,34.25
2023-04-23T05:24:01.241Z,33.81
2023-04-23T05:26:29.690Z,33.73
2023-04-23T05:28:58.067Z,33.87
2023-04-23T05:31:28.739Z,34.04
2023-04-23T05:33:58.391Z,33.98
2023-04-23T05:36:26.690Z,34.38
2023-04-23T05:38:55.285Z,34.90
2023-04-23T05:41:23.592Z,34.97
2023-04-23T05:43:51.962Z,34.62
2023-04-23T05:46:20.728Z,34.26
2023-04-23T05:48:49.108Z,33.99
2023-04-23T05:51:17.556Z,33.97
2023-04-23T05:53:45.790Z,33.90
2023-04-23T05:56:14.276Z,33.58
2023-04-23T05:58:42.776Z,33.78
2023-04-23T06:01:11.117Z,33.78
2023-04-23T06:03:42.529Z,33.77
2023-04-23T06:06:14.224Z,33.83
2023-04-23T06:08:43.087Z,33.95
2023-04-23T06:11:12.156Z,33.75
2023-04-23T06:13:43.631Z,33.85
2023-04-23T06:16:12.401Z,33.70
2023-04-23T06:18:40.764Z,33.21
2023-04-23T06:21:09.010Z,33.29
2023-04-23T06:23:37.500Z,33.49
2023-04-23T06:26:05.903Z,33.33
2023-04-23T06:28:34.301Z,33.23
2023-04-23T06:31:23.168Z,33.09
2023-04-23T06:33:52.314Z,33.02
2023-04-23T06:36:20.592Z,32.80
2023-04-23T06:38:48.905Z,32.90
2023-04-23T06:41:17.402Z,33.10
2023-04-23T06:43:46.336Z,32.67
2023-04-23T06:46:22.726Z,32.45
2023-04-23T06:48:51.512Z,32.46
2023-04-23T06:51:19.783Z,32.57
2023-04-23T06:53:48.110Z,32.58
2023-04-23T06:56:16.314Z,32.33
2023-04-23T06:58:44.745Z,31.94
2023-04-23T07:01:20.411Z,31.82
2023-04-23T07:03:51.601Z,31.44
2023-04-23T07:06:20.702Z,31.19
2023-04-23T07:08:49.395Z,31.29
2023-04-23T07:11:17.935Z,30.69
2023-04-23T07:13:46.969Z,30.65
2023-04-23T07:16:15.500Z,30.70
2023-04-23T07:18:43.925Z,30.70
2023-04-23T07:21:12.467Z,30.65
2023-04-23T07:23:40.841Z,30.24
2023-04-23T07:26:09.095Z,30.07
2023-04-23T07:28:37.291Z,29.76
2023-04-23T07:31:05.599Z,29.97
2023-04-23T07:33:34.145Z,29.50
2023-04-23T07:36:02.850Z,29.59
2023-04-23T07:38:32.333Z,29.67
2023-04-23T07:41:00.585Z,29.94
2023-04-23T07:43:29.002Z,29.75
2023-04-23T07:45:57.763Z,29.70
2023-04-23T07:48:26.053Z,29.07
2023-04-23T07:50:54.415Z,28.66
2023-04-23T07:53:23.135Z,28.80
2023-04-23T07:55:51.702Z,28.98
2023-04-23T07:58:20.364Z,28.60
2023-04-23T08:00:48.663Z,28.59
2023-04-23T08:03:17.351Z,28.40
2023-04-23T08:05:46.031Z,28.90
2023-04-23T08:08:14.463Z,28.99
2023-04-23T08:10:43.515Z,28.77
2023-04-23T08:13:11.972Z,28.42
2023-04-23T08:15:40.572Z,28.67
2023-04-23T08:18:08.934Z,28.73
2023-04-23T08:20:37.299Z,28.65
2023-04-23T08:23:06.291Z,28.60
2023-04-23T08:25:35.270Z,28.86
2023-04-23T08:28:04.095Z,29.22
2023-04-23T08:30:32.832Z,28.92
2023-04-23T08:33:01.304Z,28.43
2023-04-23T08:35:29.697Z,28.17
2023-04-23T08:37:58.447Z,27.18
2023-04-23T08:40:26.789Z,27.41
2023-04-23T08:42:59.070Z,26.81
2023-04-23T08:45:27.702Z,26.59
2023-04-23T08:48:01.587Z,26.62
2023-04-23T08:50:31.503Z,26.57
2023-04-23T08:53:00.215Z,26.43
2023-04-23T08:55:28.717Z,25.66
2023-04-23T08:57:58.496Z,25.95
2023-04-23T09:00:26.831Z,25.66
2023-04-23T09:02:55.536Z,25.35
2023-04-23T09:05:26.204Z,25.52
2023-04-23T09:07:59.959Z,24.83
2023-04-23T09:10:29.482Z,24.86
2023-04-23T09:12:58.501Z,24.28
2023-04-23T09:15:27.148Z,24.84
2023-04-23T09:17:55.735Z,24.60
2023-04-23T09:20:26.141Z,24.25
2023-04-23T09:22:54.673Z,24.04
2023-04-23T09:25:24.185Z,23.90
2023-04-23T09:27:52.877Z,23.82
2023-04-23T09:30:21.234Z,24.37
2023-04-23T09:32:50.065Z,24.19
2023-04-23T09:35:22.379Z,24.04
2023-04-23T09:37:52.706Z,23.59
2023-04-23T09:42:49.870Z,25.57
2023-04-23T09:45:18.980Z,23.60
2023-04-23T09:47:54.867Z,23.81
2023-04-23T09:50:38.584Z,23.96
2023-04-23T09:53:08.594Z,23.75
2023-04-23T09:55:42.070Z,23.52
2023-04-23T09:58:15.314Z,23.57
2023-04-23T10:00:44.003Z,23.19
2023-04-23T10:03:12.669Z,23.45
2023-04-23T10:06:00.491Z,22.98
2023-04-23T10:08:30.860Z,22.90
2023-04-23T10:11:10.127Z,23.04
2023-04-23T10:13:47.742Z,22.93
2023-04-23T10:16:23.329Z,23.26
2023-04-23T10:18:57.073Z,23.14
2023-04-23T10:21:33.933Z,23.20
2023-04-23T10:24:04.865Z,23.16
2023-04-23T10:26:33.298Z,22.84
2023-04-23T10:29:01.677Z,22.93
2023-04-23T10:31:30.212Z,23.62
2023-04-23T10:33:59.528Z,23.08
2023-04-23T10:36:29.303Z,22.85
2023-04-23T10:39:01.345Z,22.74
2023-04-23T10:41:36.612Z,22.76
2023-04-23T10:44:06.881Z,22.52
2023-04-23T10:46:37.796Z,22.66
2023-04-23T10:49:10.642Z,22.73
2023-04-23T10:54:13.506Z,22.05
2023-04-23T10:56:42.376Z,21.88
2023-04-23T10:59:20.936Z,21.75
2023-04-23T11:01:52.884Z,21.55
2023-04-23T11:04:25.547Z,21.43
2023-04-23T11:06:58.069Z,21.21
2023-04-23T11:09:35.558Z,21.41
2023-04-23T11:12:06.830Z,21.53
2023-04-23T11:14:48.764Z,21.37
2023-04-23T11:17:37.435Z,20.73
2023-04-23T11:20:10.749Z,20.48
2023-04-23T11:22:40.811Z,21.07
2023-04-23T11:25:10.592Z,20.57
2023-04-23T11:27:45.524Z,19.63
2023-04-23T11:30:15.261Z,19.91
2023-04-23T11:32:50.900Z,19.99
2023-04-23T11:35:20.698Z,19.87
2023-04-23T11:37:49.593Z,20.39
2023-04-23T11:40:22.120Z,21.21
2023-04-23T11:42:51.867Z,21.33
2023-04-23T11:45:21.756Z,21.30
2023-04-23T11:47:56.102Z,21.53
2023-04-23T11:50:30.350Z,21.70
2023-04-23T11:53:04.625Z,21.48
2023-04-23T11:55:32.917Z,21.49
2023-04-23T11:58:01.350Z,21.15
2023-04-23T12:00:30.042Z,21.17
2023-04-23T12:03:02.818Z,21.02
2023-04-23T12:05:33.298Z,21.05
2023-04-23T12:08:18.369Z,20.77
2023-04-23T12:10:49.438Z,20.66
2023-04-23T12:13:28.355Z,20.84
2023-04-23T12:16:02.542Z,21.15
2023-04-23T12:18:32.744Z,20.93
2023-04-23T12:21:14.689Z,21.17
2023-04-23T12:23:45.243Z,20.83
2023-04-23T12:26:16.949Z,21.13
2023-04-23T12:28:56.063Z,21.18
2023-04-23T12:31:28.986Z,21.16
2023-04-23T12:34:07.789Z,21.26
2023-04-23T12:36:37.527Z,21.25
2023-04-23T12:39:27.005Z,20.36
2023-04-23T12:42:05.123Z,20.73
2023-04-23T12:44:37.931Z,20.61
2023-04-23T12:47:07.834Z,20.38
2023-04-23T12:49:37.156Z,20.56
2023-04-23T12:52:06.681Z,20.32
2023-04-23T12:54:39.455Z,20.16
2023-04-23T12:57:10.249Z,19.88
2023-04-23T12:59:38.499Z,20.07
2023-04-23T13:02:07.703Z,20.42
2023-04-23T13:04:36.441Z,20.29
2023-04-23T13:07:04.811Z,20.12
2023-04-23T13:09:33.210Z,20.19
2023-04-23T13:12:02.755Z,19.79
2023-04-23T13:14:32.535Z,19.56
2023-04-23T13:17:01.225Z,19.39
2023-04-23T13:19:30.108Z,19.44
2023-04-23T13:21:58.534Z,19.83
2023-04-23T13:24:27.216Z,19.83
2023-04-23T13:26:56.427Z,19.92
2023-04-23T13:29:27.477Z,19.81
2023-04-23T13:31:56.771Z,19.92
2023-04-23T13:34:25.272Z,19.82
2023-04-23T13:36:53.497Z,20.07
2023-04-23T13:39:23.796Z,20.06
2023-04-23T13:42:06.160Z,20.24
2023-04-23T13:44:37.295Z,20.37
2023-04-23T13:47:05.605Z,20.62
2023-04-23T13:49:34.266Z,20.93
2023-04-23T13:52:07.119Z,20.63
2023-04-23T13:54:36.153Z,20.59
2023-04-23T13:57:04.609Z,20.72
2023-04-23T13:59:33.382Z,20.68
2023-04-23T14:02:01.776Z,20.83
2023-04-23T14:04:30.283Z,20.57
2023-04-23T14:06:58.623Z,20.46
2023-04-23T14:09:26.856Z,20.34
2023-04-23T14:11:55.234Z,20.56
2023-04-23T14:14:23.500Z,20.50
2023-04-23T14:16:51.876Z,20.34
2023-04-23T14:19:20.120Z,20.04
2023-04-23T14:21:48.425Z,20.23
2023-04-23T14:24:24.700Z,20.01
2023-04-23T14:26:53.263Z,20.06
2023-04-23T14:29:25.708Z,19.62
2023-04-23T14:31:54.034Z,20.37
2023-04-23T14:34:22.678Z,20.33
2023-04-23T14:36:49.780Z,20.43
2023-04-23T14:39:17.380Z,20.56
2023-04-23T14:41:45.131Z,20.45
2023-04-23T14:44:12.300Z,20.34
2023-04-23T14:46:39.448Z,20.56
2023-04-23T14:49:06.756Z,20.69
2023-04-23T14:51:33.980Z,20.61
2023-04-23T14:54:01.150Z,20.75
2023-04-23T14:56:28.376Z,20.80
2023-04-23T14:58:55.594Z,20.61
2023-04-23T15:01:22.821Z,20.73
2023-04-23T15:03:50.480Z,20.60
2023-04-23T15:06:17.977Z,20.81
2023-04-23T15:08:45.113Z,20.48
2023-04-23T15:11:15.534Z,20.23
2023-04-23T15:13:42.567Z,20.33
2023-04-23T15:16:26.278Z,20.45
2023-04-23T15:19:00.067Z,20.39
2023-04-23T15:21:27.180Z,20.22
2023-04-23T15:23:56.466Z,20.12
2023-04-23T15:26:23.834Z,20.16
2023-04-23T15:28:51.456Z,19.88
2023-04-23T15:31:18.689Z,19.91
2023-04-23T15:33:47.204Z,19.96
2023-04-23T15:36:14.363Z,19.73
2023-04-23T15:38:41.602Z,19.72
2023-04-23T15:41:08.593Z,19.90
2023-04-23T15:43:35.756Z,19.96
2023-04-23T15:46:03.894Z,19.63
2023-04-23T15:48:31.029Z,19.92
2023-04-23T15:50:58.433Z,19.89
2023-04-23T15:53:25.478Z,20.32
2023-04-23T15:55:52.577Z,20.09
2023-04-23T15:58:19.825Z,20.14
2023-04-23T16:00:47.186Z,20.11
2023-04-23T16:03:15.388Z,20.43
2023-04-23T16:05:43.392Z,20.45
2023-04-23T16:08:10.862Z,20.41
2023-04-23T16:10:38.312Z,20.67
2023-04-23T16:13:06.569Z,20.43
2023-04-23T16:15:33.951Z,20.56
2023-04-23T16:18:01.238Z,20.60
2023-04-23T16:20:28.901Z,20.69
2023-04-23T16:22:56.251Z,21.23
2023-04-23T16:25:23.294Z,21.24
2023-04-23T16:27:50.555Z,21.58
2023-04-23T16:30:17.579Z,21.96
2023-04-23T16:32:44.994Z,22.70
2023-04-23T16:35:12.230Z,23.05
2023-04-23T16:37:39.200Z,23.13
2023-04-23T16:40:07.379Z,24.48
2023-04-23T16:42:34.535Z,24.21
2023-04-23T16:45:02.352Z,25.83
2023-04-23T16:47:29.334Z,26.00
2023-04-23T16:49:56.472Z,27.07
2023-04-23T16:52:23.705Z,26.10
2023-04-23T16:54:51.100Z,27.42
2023-04-23T16:57:18.596Z,27.23
2023-04-23T16:59:45.730Z,26.65
2023-04-23T17:02:12.861Z,27.03
2023-04-23T17:04:40.482Z,27.02
2023-04-23T17:07:08.186Z,27.36
2023-04-23T17:09:35.594Z,27.36
2023-04-23T17:12:02.707Z,25.94
2023-04-23T17:14:29.797Z,27.22
2023-04-23T17:16:57.101Z,27.64
2023-04-23T17:19:24.222Z,27.19
2023-04-23T17:21:51.364Z,28.31
2023-04-23T17:24:18.431Z,27.39
2023-04-23T17:26:45.536Z,28.78
2023-04-23T17:29:13.706Z,29.42
2023-04-23T17:31:40.834Z,29.59
2023-04-23T17:34:08.425Z,29.46
2023-04-23T17:36:36.135Z,29.78
2023-04-23T17:39:03.389Z,29.65
2023-04-23T17:41:30.937Z,29.91
2023-04-23T17:43:58.005Z,28.89
2023-04-23T17:46:25.509Z,28.70
2023-04-23T17:48:52.767Z,29.66
2023-04-23T17:51:19.898Z,29.83
2023-04-23T17:53:48.675Z,30.16
2023-04-23T17:56:16.124Z,29.32
2023-04-23T17:58:43.411Z,29.50
2023-04-23T18:01:10.931Z,29.22
2023-04-23T18:03:38.456Z,30.49
2023-04-23T18:06:06.570Z,30.20
2023-04-23T18:08:33.924Z,29.88
2023-04-23T18:11:01.395Z,30.03
2023-04-23T18:13:28.559Z,30.69
2023-04-23T18:15:55.662Z,29.89
2023-04-23T18:18:23.014Z,30.12
2023-04-23T18:20:52.178Z,31.19
2023-04-23T18:23:22.584Z,30.79
2023-04-23T18:25:49.800Z,30.74
2023-04-23T18:28:16.882Z,31.08
2023-04-23T18:30:44.101Z,31.20
2023-04-23T18:33:38.471Z,31.02
2023-04-23T18:36:08.087Z,31.09
2023-04-23T18:38:43.249Z,31.64
2023-04-23T18:41:10.242Z,31.33
2023-04-23T18:43:37.296Z,31.64
2023-04-23T18:46:04.667Z,31.76
2023-04-23T18:48:34.979Z,31.34
2023-04-23T18:51:06.623Z,31.05
2023-04-23T18:53:33.866Z,31.34
2023-04-23T18:56:01.565Z,31.52
2023-04-23T18:58:30.189Z,31.60
2023-04-23T19:00:57.776Z,31.45
2023-04-23T19:03:27.072Z,31.62
2023-04-23T19:05:55.437Z,31.88
2023-04-23T19:08:22.972Z,31.96
2023-04-23T19:10:50.046Z,32.38
2023-04-23T19:13:18.958Z,32.46
2023-04-23T19:15:45.961Z,31.52
2023-04-23T19:18:13.091Z,32.34
2023-04-23T19:20:40.221Z,31.95
2023-04-23T19:23:09.027Z,32.26
2023-04-23T19:25:36.722Z,32.11
2023-04-23T19:28:03.752Z,31.68
2023-04-23T19:30:30.849Z,31.71
2023-04-23T19:32:57.935Z,31.85
2023-04-23T19:35:25.075Z,31.60
2023-04-23T19:37:52.292Z,31.87
2023-04-23T19:40:19.491Z,31.87
2023-04-23T19:42:46.818Z,32.16
2023-04-23T19:45:16.705Z,32.21
2023-04-23T19:47:43.699Z,32.58
2023-04-23T19:50:12.009Z,32.63
2023-04-23T19:52:39.316Z,32.32
2023-04-23T19:55:08.045Z,32.89
2023-04-23T19:57:35.078Z,33.12
2023-04-23T20:00:02.203Z,32.95
2023-04-23T20:02:35.199Z,32.39
2023-04-23T20:05:03.439Z,32.15
2023-04-23T20:07:31.123Z,32.41
2023-04-23T20:09:58.197Z,32.45
2023-04-23T20:12:25.272Z,32.39
2023-04-23T20:14:54.409Z,32.58
2023-04-23T20:17:21.863Z,32.32
2023-04-23T20:19:50.535Z,32.80
2023-04-23T20:22:17.762Z,32.79
2023-04-23T20:24:47.192Z,32.97
2023-04-23T20:27:14.576Z,32.85
2023-04-23T20:29:42.354Z,33.16
2023-04-23T20:32:09.713Z,32.84
2023-04-23T20:34:37.218Z,32.62
2023-04-23T20:37:04.271Z,32.44
2023-04-23T20:39:32.827Z,32.83
2023-04-23T20:42:01.165Z,32.86
2023-04-23T20:44:28.318Z,32.99
2023-04-23T20:46:58.061Z,33.03
2023-04-23T20:49:25.829Z,33.32
2023-04-23T20:51:53.501Z,33.46
2023-04-23T20:54:20.571Z,33.40
2023-04-23T20:56:47.677Z,33.08
2023-04-23T20:59:15.501Z,32.87
2023-04-23T21:01:42.478Z,33.02
2023-04-23T21:04:09.805Z,33.34
2023-04-23T21:06:36.949Z,33.25
2023-04-23T21:09:04.742Z,33.54
2023-04-23T21:11:31.870Z,33.16
2023-04-23T21:14:00.953Z,33.20
2023-04-23T21:16:28.286Z,33.82
2023-04-23T21:18:55.653Z,33.56
2023-04-23T21:21:27.239Z,33.55
2023-04-23T21:23:54.879Z,33.59
2023-04-23T21:26:22.158Z,34.01
2023-04-23T21:28:49.636Z,34.39
2023-04-23T21:31:27.499Z,34.54
2023-04-23T21:33:56.884Z,34.74
2023-04-23T21:36:24.224Z,34.27
2023-04-23T21:38:53.295Z,34.38
2023-04-23T21:41:20.329Z,34.11
2023-04-23T21:43:47.370Z,33.72
2023-04-23T21:46:14.414Z,33.84
2023-04-23T21:48:41.985Z,34.08
2023-04-23T21:51:09.311Z,34.44
2023-04-23T21:53:36.343Z,34.11
2023-04-23T21:59:06.382Z,37.07
2023-04-23T22:01:36.091Z,34.84
2023-04-23T22:04:04.867Z,34.53
2023-04-23T22:06:32.117Z,34.46
2023-04-23T22:08:59.298Z,34.69
2023-04-23T22:11:26.397Z,34.36
2023-04-23T22:13:53.930Z,34.37
2023-04-23T22:16:28.633Z,34.77
2023-04-23T22:18:57.136Z,34.76
2023-04-23T22:21:24.345Z,35.27
2023-04-23T22:23:51.585Z,35.17
2023-04-23T22:26:18.700Z,34.74
2023-04-23T22:28:45.729Z,34.25
2023-04-23T22:31:13.245Z,34.40
2023-04-23T22:33:40.313Z,34.73
2023-04-23T22:36:07.676Z,34.69
2023-04-23T22:38:35.099Z,34.82
2023-04-23T22:41:02.436Z,35.08
2023-04-23T22:43:29.818Z,35.07
2023-04-23T22:45:57.067Z,35.00
2023-04-23T22:48:24.418Z,34.91
2023-04-23T22:50:51.582Z,34.91
2023-04-23T22:53:19.743Z,34.54
2023-04-23T22:55:47.106Z,34.91
2023-04-23T22:58:14.284Z,34.93
2023-04-23T23:00:41.506Z,34.99
2023-04-23T23:03:08.848Z,35.04
2023-04-23T23:05:35.920Z,34.92
2023-04-23T23:08:03.038Z,35.15
2023-04-23T23:10:30.185Z,34.80
2023-04-23T23:12:57.541Z,35.20
2023-04-23T23:15:24.649Z,35.68
2023-04-23T23:17:51.798Z,36.00
2023-04-23T23:20:20.401Z,35.54
2023-04-23T23:22:47.408Z,35.87
2023-04-23T23:25:14.735Z,36.13
2023-04-23T23:27:41.890Z,35.85
2023-04-23T23:30:09.844Z,35.97
2023-04-23T23:32:36.860Z,36.34
2023-04-23T23:35:04.353Z,36.45
2023-04-23T23:37:31.621Z,36.07
2023-04-23T23:39:58.877Z,35.96
2023-04-23T23:42:25.954Z,36.19
2023-04-23T23:44:53.003Z,35.99
2023-04-23T23:47:20.584Z,36.49
2023-04-23T23:49:47.670Z,35.93
2023-04-23T23:52:14.720Z,35.99
2023-04-23T23:54:41.993Z,36.38
2023-04-23T23:57:09.276Z,36.62
2023-04-23T23:59:36.700Z,36.56
